Time;durP1;ratioP1;P1;durP2;ratioP2;P2;SDS_P1;SDS_P2;PMS_P1;PMS_P2;Temp;Humidity;BMP_temperature;BMP_pressure;BME280_temperature;BME280_humidity;BME280_pressure;Samples;Min_cycle;Max_cycle;Signal;HPM_P1;HPM_P2
2021/01/21 00:02:11;;;;;;;12.20;8.93;;;;;;;-4.75;84.93;94356.84;5000192;28;20464;-75
2021/01/21 00:04:38;;;;;;;8.33;7.53;;;;;;;-4.71;85.07;94355.66;4986918;28;20547;-74
2021/01/21 00:07:05;;;;;;;10.03;8.80;;;;;;;-4.61;85.87;94353.97;4982233;28;20462;-74
2021/01/21 00:09:32;;;;;;;8.70;7.90;;;;;;;-4.55;86.27;94343.19;5004073;28;20469;-74
2021/01/21 00:12:00;;;;;;;12.03;10.97;;;;;;;-4.54;85.52;94344.00;4986571;28;20470;-74
2021/01/21 00:14:27;;;;;;;10.63;9.20;;;;;;;-4.53;85.68;94338.72;4998369;28;20480;-74
2021/01/21 00:16:54;;;;;;;9.17;8.03;;;;;;;-4.51;86.41;94351.47;4993579;28;20519;-74
2021/01/21 00:19:21;;;;;;;13.00;10.23;;;;;;;-4.61;85.76;94372.78;4997478;28;20475;-74
2021/01/21 00:21:47;;;;;;;10.90;7.90;;;;;;;-4.61;84.98;94356.53;5005023;28;20539;-73
2021/01/21 00:24:14;;;;;;;9.83;8.97;;;;;;;-4.75;85.76;94356.84;4988816;28;20931;-73
2021/01/21 00:26:41;;;;;;;10.23;9.20;;;;;;;-4.74;86.49;94348.19;4991443;28;20522;-74
2021/01/21 00:29:09;;;;;;;11.37;10.10;;;;;;;-4.76;87.70;94330.28;5000540;28;20471;-74
2021/01/21 00:31:36;;;;;;;13.93;8.77;;;;;;;-4.78;88.26;94326.19;5000758;28;20455;-74
2021/01/21 00:34:03;;;;;;;9.50;8.60;;;;;;;-4.74;88.81;94322.47;4998659;28;20480;-74
2021/01/21 00:36:30;;;;;;;12.57;9.97;;;;;;;-4.75;88.82;94316.50;5002896;28;20470;-74
2021/01/21 00:38:57;;;;;;;15.07;9.60;;;;;;;-4.73;89.29;94314.59;4986125;28;20530;-74
2021/01/21 00:41:24;;;;;;;9.73;8.83;;;;;;;-4.70;88.39;94313.53;5004586;28;21051;-74
2021/01/21 00:43:51;;;;;;;9.47;8.53;;;;;;;-4.70;88.53;94316.09;4986349;28;20472;-73
2021/01/21 00:46:18;;;;;;;8.27;7.43;;;;;;;-4.71;88.77;94315.28;4986147;28;20472;-74
2021/01/21 00:48:45;;;;;;;13.67;10.40;;;;;;;-4.69;88.04;94307.44;4997418;28;20514;-74
2021/01/21 00:51:12;;;;;;;10.10;8.87;;;;;;;-4.71;87.79;94302.41;5000202;28;20471;-74
2021/01/21 00:53:39;;;;;;;9.13;8.33;;;;;;;-4.70;88.12;94298.09;5000130;28;20974;-74
2021/01/21 00:56:06;;;;;;;8.70;7.80;;;;;;;-4.67;87.53;94308.13;4998893;28;20562;-74
2021/01/21 00:58:35;;;;;;;9.07;8.30;;;;;;;-4.82;88.04;94329.97;5003180;28;20478;-74
2021/01/21 01:01:02;;;;;;;15.13;11.83;;;;;;;-4.52;88.54;94342.91;4978154;28;21041;-74
2021/01/21 01:03:31;;;;;;;9.67;8.53;;;;;;;-4.57;87.60;94332.19;4981764;28;20478;-74
2021/01/21 01:06:00;;;;;;;12.00;10.80;;;;;;;-4.55;87.33;94332.88;4972386;28;20490;-74
2021/01/21 01:08:26;;;;;;;9.00;8.13;;;;;;;-4.57;87.84;94319.31;4996579;28;20461;-74
2021/01/21 01:10:53;;;;;;;16.50;10.67;;;;;;;-4.52;88.97;94322.31;4972766;28;20469;-73
2021/01/21 01:13:31;;;;;;;11.13;8.93;;;;;;;-4.41;89.47;94329.16;4972801;28;20598;-74
2021/01/21 01:16:05;;;;;;;11.80;8.73;;;;;;;-4.43;88.60;94342.16;4982628;28;20495;-74
2021/01/21 01:18:41;;;;;;;9.67;7.60;;;;;;;-4.32;89.20;94344.66;4985595;28;20455;-74
2021/01/21 01:21:08;;;;;;;9.40;8.43;;;;;;;-4.38;88.27;94347.78;4977165;28;20485;-74
2021/01/21 01:23:35;;;;;;;10.90;9.10;;;;;;;-4.32;88.48;94344.66;5000459;28;21044;-74
2021/01/21 01:26:02;;;;;;;9.30;8.43;;;;;;;-4.27;89.04;94353.78;4996662;28;20526;-73
2021/01/21 01:28:29;;;;;;;10.10;8.47;;;;;;;-4.16;89.60;94354.53;5005296;28;20473;-74
2021/01/21 01:30:56;;;;;;;11.43;9.03;;;;;;;-4.23;89.16;94337.13;5001494;28;21221;-74
2021/01/21 01:33:23;;;;;;;10.23;9.03;;;;;;;-4.00;89.15;94338.63;4985278;28;20568;-73
2021/01/21 01:35:51;;;;;;;9.27;8.30;;;;;;;-3.82;89.83;94337.06;4970357;28;20550;-73
2021/01/21 01:38:18;;;;;;;9.87;8.40;;;;;;;-3.70;89.75;94335.22;4984713;28;20834;-73
2021/01/21 01:40:46;;;;;;;9.43;8.50;;;;;;;-3.60;89.33;94332.66;4998350;28;20838;-74
2021/01/21 01:43:16;;;;;;;9.57;8.57;;;;;;;-3.48;88.89;94324.69;4993785;28;20683;-74
2021/01/21 01:45:48;;;;;;;8.53;7.73;;;;;;;-3.35;88.43;94319.31;4984522;28;20487;-73
2021/01/21 01:48:17;;;;;;;9.20;7.53;;;;;;;-3.15;86.83;94310.63;4996925;28;20456;-73
2021/01/21 01:50:51;;;;;;;8.10;7.27;;;;;;;-3.20;86.54;94312.81;4970659;28;20486;-74
2021/01/21 01:53:23;;;;;;;8.50;7.70;;;;;;;-3.23;86.63;94297.59;4984533;28;20467;-73
2021/01/21 01:55:55;;;;;;;7.63;6.57;;;;;;;-3.21;86.48;94300.03;4984352;28;20463;-74
2021/01/21 01:58:36;;;;;;;7.53;6.83;;;;;;;-3.23;86.19;94295.00;4984939;28;21005;-73
2021/01/21 02:01:15;;;;;;;8.50;7.63;;;;;;;-3.06;84.53;94282.41;4978391;28;20460;-74
2021/01/21 02:03:44;;;;;;;7.77;7.07;;;;;;;-3.27;84.71;94296.25;4976056;28;20465;-74
2021/01/21 02:06:35;;;;;;;11.83;7.37;;;;;;;-3.47;85.07;94287.66;4974964;28;20854;-73
2021/01/21 02:09:05;;;;;;;8.13;7.33;;;;;;;-3.61;85.30;94293.19;4985270;28;20750;-73
2021/01/21 02:11:44;;;;;;;8.47;6.77;;;;;;;-3.75;83.48;94296.97;4999705;28;20493;-74
2021/01/21 02:14:20;;;;;;;6.90;6.20;;;;;;;-3.70;84.09;94303.47;4974994;28;21099;-74
2021/01/21 02:16:55;;;;;;;10.83;8.33;;;;;;;-3.92;82.96;94331.06;4984696;28;20554;-73
2021/01/21 02:19:59;;;;;;;11.00;8.57;;;;;;;-3.99;81.91;94345.41;4987629;28;20994;-73
2021/01/21 02:23:19;;;;;;;9.23;8.53;;;;;;;-4.19;83.03;94333.38;4984362;28;20471;-74
2021/01/21 02:25:53;;;;;;;9.17;7.83;;;;;;;-3.89;85.26;94315.34;4974036;28;20463;-73
2021/01/21 02:28:50;;;;;;;9.47;8.50;;;;;;;-3.74;86.80;94314.03;4984607;28;20464;-73
2021/01/21 02:31:38;;;;;;;7.57;6.87;;;;;;;-3.59;86.92;94308.50;4981331;28;20973;-73
2021/01/21 02:34:07;;;;;;;7.53;6.03;;;;;;;-3.27;86.45;94291.09;5000092;28;20542;-73
2021/01/21 02:36:39;;;;;;;7.73;6.87;;;;;;;-3.03;84.61;94288.09;4983933;28;20538;-73
2021/01/21 02:39:17;;;;;;;13.47;6.93;;;;;;;-2.96;84.26;94289.19;4983619;28;20455;-73
2021/01/21 02:41:49;;;;;;;9.43;7.97;;;;;;;-2.99;83.68;94299.81;4984611;28;20464;-74
2021/01/21 02:44:16;;;;;;;7.40;6.70;;;;;;;-3.04;84.13;94290.81;4995242;28;20459;-73
2021/01/21 02:46:46;;;;;;;6.77;6.17;;;;;;;-3.05;83.89;94294.34;4990108;28;20467;-73
2021/01/21 02:49:14;;;;;;;7.07;5.93;;;;;;;-3.10;84.05;94301.69;5000553;28;20479;-74
2021/01/21 02:51:47;;;;;;;6.33;5.73;;;;;;;-3.22;83.38;94299.22;4994766;28;20528;-73
2021/01/21 02:54:30;;;;;;;7.03;6.33;;;;;;;-3.32;83.47;94303.56;4987630;28;20455;-74
2021/01/21 02:57:05;;;;;;;7.80;7.20;;;;;;;-3.40;84.22;94315.47;4983634;28;20543;-73
2021/01/21 02:59:38;;;;;;;7.63;7.03;;;;;;;-3.46;83.93;94314.25;4986022;28;20492;-73
2021/01/21 03:02:10;;;;;;;8.17;6.70;;;;;;;-3.48;84.30;94304.06;4988998;28;20459;-73
2021/01/21 03:04:39;;;;;;;7.07;6.50;;;;;;;-3.41;84.69;94306.94;4971921;28;20476;-73
2021/01/21 03:07:08;;;;;;;7.17;6.27;;;;;;;-3.26;84.80;94308.19;4984234;28;20491;-73
2021/01/21 03:09:44;;;;;;;7.40;6.70;;;;;;;-3.20;84.87;94297.34;4985842;28;20502;-74
2021/01/21 03:12:17;;;;;;;6.33;5.83;;;;;;;-3.18;84.73;94307.53;4982620;28;20554;-73
2021/01/21 03:14:45;;;;;;;10.63;7.87;;;;;;;-3.19;85.47;94288.66;4988467;28;20466;-73
2021/01/21 03:17:14;;;;;;;7.27;5.37;;;;;;;-3.16;85.52;94293.53;4976889;28;20468;-73
2021/01/21 03:19:47;;;;;;;7.67;6.87;;;;;;;-3.04;85.39;94293.41;4978884;28;20464;-73
2021/01/21 03:22:15;;;;;;;7.77;5.50;;;;;;;-3.01;85.31;94285.41;4978500;28;20463;-73
2021/01/21 03:24:43;;;;;;;7.37;6.37;;;;;;;-2.99;85.27;94278.34;4987040;28;20915;-73
2021/01/21 03:27:16;;;;;;;7.30;5.33;;;;;;;-2.96;84.71;94283.22;4986702;28;20460;-73
2021/01/21 03:29:44;;;;;;;6.67;5.73;;;;;;;-2.92;85.08;94292.34;4982705;28;20455;-73
2021/01/21 03:32:16;;;;;;;6.80;6.13;;;;;;;-2.88;85.42;94291.09;4985491;28;20529;-74
2021/01/21 03:34:54;;;;;;;7.67;5.80;;;;;;;-2.82;84.94;94289.75;5000306;28;20470;-73
2021/01/21 03:37:21;;;;;;;8.03;7.33;;;;;;;-2.86;85.23;94290.00;4989540;28;20471;-73
2021/01/21 03:39:50;;;;;;;7.77;7.00;;;;;;;-2.93;84.76;94290.69;4988871;28;20859;-74
2021/01/21 03:42:30;;;;;;;7.03;6.43;;;;;;;-2.97;84.20;94295.31;4982889;28;20545;-74
2021/01/21 03:45:36;;;;;;;7.10;6.20;;;;;;;-2.99;84.50;94293.81;4965713;28;20500;-73
2021/01/21 03:48:09;;;;;;;6.70;6.00;;;;;;;-2.99;84.59;94286.91;4949682;28;20618;-73
2021/01/21 03:50:57;;;;;;;8.90;7.00;;;;;;;-2.96;84.70;94283.22;4982462;28;20471;-73
2021/01/21 03:53:25;;;;;;;7.93;6.77;;;;;;;-3.05;84.98;94281.44;4988173;28;20479;-73
2021/01/21 03:56:16;;;;;;;8.07;6.33;;;;;;;-3.24;84.77;94280.50;4985139;28;20459;-74
2021/01/21 03:58:43;;;;;;;9.20;6.23;;;;;;;-3.24;84.44;94295.97;4981524;28;20936;-73
2021/01/21 04:01:16;;;;;;;12.00;7.70;;;;;;;-3.32;84.07;94280.34;4985638;28;20452;-73
2021/01/21 04:03:45;;;;;;;8.07;7.10;;;;;;;-3.36;83.14;94281.56;4981695;28;20743;-73
2021/01/21 04:06:12;;;;;;;6.57;5.97;;;;;;;-3.35;83.95;94287.53;5000811;28;20542;-73
2021/01/21 04:08:40;;;;;;;7.70;5.60;;;;;;;-3.21;83.79;94293.09;5006597;28;20471;-73
2021/01/21 04:11:33;;;;;;;6.37;5.73;;;;;;;-3.17;83.82;94293.69;4984489;28;20475;-74
2021/01/21 04:14:04;;;;;;;11.17;6.77;;;;;;;-3.18;83.42;94295.44;4977107;28;20513;-73
2021/01/21 04:16:33;;;;;;;6.70;5.53;;;;;;;-3.17;83.92;94284.16;4984889;28;20468;-73
2021/01/21 04:19:01;;;;;;;5.07;4.57;;;;;;;-3.21;84.23;94281.97;4983301;28;20467;-73
2021/01/21 04:21:29;;;;;;;8.37;6.30;;;;;;;-3.24;84.00;94290.81;4995006;28;21027;-73
2021/01/21 04:24:03;;;;;;;7.27;6.50;;;;;;;-3.28;84.34;94294.63;4988123;28;20518;-73
2021/01/21 04:26:40;;;;;;;5.33;4.87;;;;;;;-3.31;84.59;94279.38;4984681;28;20808;-73
2021/01/21 04:29:08;;;;;;;5.87;5.43;;;;;;;-3.31;84.53;94279.38;4980568;28;20824;-73
2021/01/21 04:31:36;;;;;;;8.83;4.97;;;;;;;-3.29;84.54;94272.34;4981262;28;20480;-73
2021/01/21 04:34:15;;;;;;;6.17;5.63;;;;;;;-3.19;84.96;94273.16;4985820;28;21049;-73
2021/01/21 04:36:45;;;;;;;4.77;4.37;;;;;;;-3.17;84.29;94276.44;4973933;28;20467;-73
2021/01/21 04:39:20;;;;;;;5.87;5.30;;;;;;;-3.19;83.73;94280.09;4978672;28;20539;-73
2021/01/21 04:41:47;;;;;;;6.83;6.23;;;;;;;-3.23;83.78;94284.69;4980684;28;20460;-73
2021/01/21 04:44:23;;;;;;;5.87;5.37;;;;;;;-3.27;84.56;94275.59;4991013;28;20568;-74
2021/01/21 04:47:00;;;;;;;6.30;5.50;;;;;;;-3.18;84.47;94279.97;4978517;28;20460;-74
2021/01/21 04:49:38;;;;;;;6.07;4.67;;;;;;;-3.21;84.25;94280.22;4981844;28;20879;-74
2021/01/21 04:52:10;;;;;;;5.37;4.97;;;;;;;-3.15;83.70;94284.03;4981269;28;20563;-73
2021/01/21 04:54:43;;;;;;;6.50;5.93;;;;;;;-3.12;83.52;94282.94;4987997;28;20485;-73
2021/01/21 04:57:20;;;;;;;6.13;5.63;;;;;;;-3.18;83.70;94279.97;4984097;28;21014;-73
2021/01/21 04:59:55;;;;;;;6.37;5.80;;;;;;;-3.19;83.82;94280.09;4994343;28;20460;-73
2021/01/21 05:02:41;;;;;;;4.97;4.40;;;;;;;-3.01;84.48;94288.00;4981434;28;20468;-73
2021/01/21 05:05:41;;;;;;;6.37;5.77;;;;;;;-2.82;83.47;94282.81;4964902;28;20472;-74
2021/01/21 05:08:12;;;;;;;8.27;7.57;;;;;;;-2.73;83.06;94294.09;4983773;28;20612;-73
2021/01/21 05:10:54;;;;;;;6.37;5.80;;;;;;;-2.62;83.16;94286.19;5001104;28;20469;-73
2021/01/21 05:13:26;;;;;;;6.03;5.57;;;;;;;-2.64;82.98;94291.50;4981636;28;20500;-73
2021/01/21 05:16:12;;;;;;;10.70;9.53;;;;;;;-2.62;82.74;94292.19;4991128;28;20483;-73
2021/01/21 05:18:53;;;;;;;12.87;9.83;;;;;;;-2.64;82.78;94294.09;4984081;28;20853;-73
2021/01/21 05:21:43;;;;;;;8.30;7.33;;;;;;;-2.65;83.33;94282.13;4994888;28;20893;-73
2021/01/21 05:24:31;;;;;;;7.93;6.37;;;;;;;-2.64;83.54;94294.09;5000304;28;21072;-74
2021/01/21 05:27:24;;;;;;;7.33;6.20;;;;;;;-2.69;83.27;94301.41;4980157;28;20475;-73
2021/01/21 05:30:04;;;;;;;6.13;5.57;;;;;;;-2.65;83.64;94297.63;4978240;28;20845;-73
2021/01/21 05:32:32;;;;;;;5.67;5.13;;;;;;;-2.60;83.75;94300.59;4983838;28;20480;-73
2021/01/21 05:35:20;;;;;;;5.20;4.80;;;;;;;-2.59;83.96;94299.63;4993849;28;20455;-73
2021/01/21 05:37:54;;;;;;;5.07;4.10;;;;;;;-2.60;83.65;94305.75;4978553;28;20875;-74
2021/01/21 05:40:45;;;;;;;4.60;4.30;;;;;;;-2.55;83.60;94300.19;5000788;28;21118;-73
2021/01/21 05:43:48;;;;;;;3.73;3.43;;;;;;;-2.55;83.79;94291.63;4925924;28;20613;-74
2021/01/21 05:46:41;;;;;;;4.10;3.80;;;;;;;-2.34;82.98;94284.53;4969068;28;20540;-73
2021/01/21 05:49:10;;;;;;;3.80;3.50;;;;;;;-2.33;82.49;94283.56;4971349;28;20490;-73
2021/01/21 05:51:40;;;;;;;4.77;4.47;;;;;;;-2.31;82.46;94284.22;4982507;28;20988;-73
2021/01/21 05:54:17;;;;;;;5.37;4.37;;;;;;;-2.28;82.29;94281.38;4976657;28;20464;-73
2021/01/21 05:56:55;;;;;;;4.53;3.37;;;;;;;-2.36;83.53;94289.00;4982783;28;20460;-73
2021/01/21 05:59:23;;;;;;;3.30;3.10;;;;;;;-2.24;83.34;94295.63;4986187;28;20984;-73
2021/01/21 06:01:59;;;;;;;4.67;4.17;;;;;;;-2.23;83.43;94291.28;4973695;28;20612;-74
2021/01/21 06:04:35;;;;;;;4.33;3.73;;;;;;;-2.23;83.40;94286.94;4978191;28;20554;-73
2021/01/21 06:07:03;;;;;;;4.60;3.50;;;;;;;-2.27;83.60;94285.59;4999828;28;20556;-73
2021/01/21 06:09:31;;;;;;;3.70;3.40;;;;;;;-2.26;83.88;94292.38;5001269;28;20525;-73
2021/01/21 06:12:00;;;;;;;4.07;3.77;;;;;;;-2.18;84.63;94294.28;4976434;28;20940;-74
2021/01/21 06:14:27;;;;;;;7.07;3.33;;;;;;;-2.21;85.24;94294.53;4975765;28;20472;-73
2021/01/21 06:16:55;;;;;;;3.57;3.30;;;;;;;-2.12;85.29;94289.34;4985930;28;20547;-73
2021/01/21 06:19:22;;;;;;;4.67;3.63;;;;;;;-2.05;84.65;94282.66;5008716;28;20467;-73
2021/01/21 06:22:14;;;;;;;5.70;3.47;;;;;;;-1.94;83.79;94271.31;4984303;28;20460;-73
2021/01/21 06:25:12;;;;;;;8.07;5.83;;;;;;;-1.70;82.79;94277.78;4988103;28;20486;-73
2021/01/21 06:27:41;;;;;;;16.20;13.00;;;;;;;-1.68;82.15;94276.66;5001623;28;20510;-73
2021/01/21 06:30:13;;;;;;;12.77;11.50;;;;;;;-1.55;81.47;94282.31;4986486;28;20531;-73
2021/01/21 06:32:47;;;;;;;11.43;10.33;;;;;;;-1.43;80.84;94275.16;5008527;28;20486;-73
2021/01/21 06:35:19;;;;;;;7.93;7.20;;;;;;;-1.28;80.50;94283.25;4988847;28;20529;-73
2021/01/21 06:37:49;;;;;;;7.87;7.10;;;;;;;-1.25;80.24;94277.78;5007833;28;20463;-73
2021/01/21 06:40:19;;;;;;;8.10;6.47;;;;;;;-1.27;80.31;94270.19;4985279;28;20479;-69
2021/01/21 06:42:56;;;;;;;9.20;8.37;;;;;;;-1.27;80.55;94269.38;5002696;28;20474;-69
2021/01/21 06:45:23;;;;;;;20.60;13.73;;;;;;;-1.28;80.93;94267.72;5003930;28;21050;-69
2021/01/21 06:47:50;;;;;;;37.57;22.43;;;;;;;-1.28;81.58;94278.06;4982131;28;20490;-69
2021/01/21 06:50:18;;;;;;;33.80;21.27;;;;;;;-1.25;81.62;94280.38;5004423;28;20475;-69
2021/01/21 06:52:46;;;;;;;28.20;18.37;;;;;;;-1.23;82.06;94287.03;5004735;28;20502;-69
2021/01/21 06:55:14;;;;;;;6.17;5.57;;;;;;;-1.07;81.14;94280.41;4999389;28;20920;-69
2021/01/21 06:57:43;;;;;;;7.87;5.30;;;;;;;-1.00;80.65;94287.44;5006266;28;20500;-68
2021/01/21 07:00:13;;;;;;;5.97;5.13;;;;;;;-1.00;80.69;94297.78;4980843;28;20912;-69
2021/01/21 07:02:41;;;;;;;4.33;4.00;;;;;;;-0.96;80.82;94309.47;5006648;28;20484;-69
2021/01/21 07:05:10;;;;;;;3.70;3.40;;;;;;;-0.86;80.51;94310.22;4990244;28;20964;-69
2021/01/21 07:08:06;;;;;;;2.30;2.20;;;;;;;-0.58;77.62;94299.75;5006726;28;21000;-69
2021/01/21 07:10:35;;;;;;;5.13;2.73;;;;;;;-0.49;76.47;94293.69;4997672;28;20470;-69
2021/01/21 07:13:04;;;;;;;4.33;3.87;;;;;;;-0.50;76.89;94294.66;4987885;28;20876;-69
2021/01/21 07:15:44;;;;;;;3.17;2.97;;;;;;;-0.58;80.12;94297.19;4994745;28;20531;-70
2021/01/21 07:18:19;;;;;;;1.93;1.80;;;;;;;-0.62;81.21;94293.28;4999316;28;20469;-69
2021/01/21 07:21:16;;;;;;;3.10;2.90;;;;;;;-0.65;81.71;94290.94;4987324;28;20571;-69
2021/01/21 07:23:45;;;;;;;2.67;2.47;;;;;;;-0.66;81.95;94289.34;5001547;28;21083;-70
2021/01/21 07:26:29;;;;;;;3.03;2.83;;;;;;;-0.73;81.75;94301.25;5000548;28;20583;-69
2021/01/21 07:29:09;;;;;;;2.50;2.30;;;;;;;-0.77;82.14;94287.78;4995567;28;20492;-69
2021/01/21 07:32:08;;;;;;;3.33;3.07;;;;;;;-0.71;82.16;94279.44;5001403;28;20224;-69
2021/01/21 07:34:44;;;;;;;7.43;3.00;;;;;;;-0.62;81.79;94277.72;4995184;28;20973;-68
2021/01/21 07:37:17;;;;;;;3.80;3.23;;;;;;;-0.48;81.12;94276.34;5004161;28;20226;-69
2021/01/21 07:39:47;;;;;;;6.63;4.87;;;;;;;-0.39;80.00;94259.91;5004547;28;20234;-69
2021/01/21 07:42:14;;;;;;;7.10;6.10;;;;;;;-0.34;79.67;94258.50;4997594;28;20301;-69
2021/01/21 07:44:54;;;;;;;17.10;10.93;;;;;;;-0.31;79.96;94263.38;4997428;28;20215;-69
2021/01/21 07:47:30;;;;;;;6.43;5.77;;;;;;;-0.24;80.13;94255.81;5000085;28;20218;-69
2021/01/21 07:50:26;;;;;;;4.50;3.73;;;;;;;-0.20;80.74;94251.13;5002202;28;20661;-69
2021/01/21 07:52:54;;;;;;;4.23;3.20;;;;;;;-0.24;80.88;94255.00;5006528;28;20324;-69
2021/01/21 07:55:25;;;;;;;3.80;3.50;;;;;;;-0.37;81.03;94258.78;4996171;28;20289;-69
2021/01/21 07:57:52;;;;;;;6.27;5.87;;;;;;;-0.54;81.52;94264.03;4990955;28;20231;-69
2021/01/21 08:00:20;;;;;;;6.87;4.53;;;;;;;-0.62;81.69;94254.41;4980897;28;20246;-69
2021/01/21 08:02:49;;;;;;;4.77;3.77;;;;;;;-0.53;81.71;94257.88;4987813;28;20551;-69
2021/01/21 08:05:18;;;;;;;7.03;4.90;;;;;;;-0.45;81.54;94263.13;4999565;28;20227;-69
2021/01/21 08:07:49;;;;;;;5.93;4.73;;;;;;;-0.37;81.20;94263.16;5003744;28;20280;-69
2021/01/21 08:10:19;;;;;;;9.30;4.73;;;;;;;-0.50;79.85;94268.75;4993381;28;20312;-68
2021/01/21 08:12:50;;;;;;;4.17;3.87;;;;;;;-0.61;80.03;94268.97;5004066;28;20282;-69
2021/01/21 08:15:18;;;;;;;7.13;4.13;;;;;;;-0.51;79.91;94274.88;4997138;28;20229;-69
2021/01/21 08:17:46;;;;;;;3.43;3.23;;;;;;;-0.48;79.77;94290.13;5004634;28;20304;-68
2021/01/21 08:20:14;;;;;;;4.97;2.80;;;;;;;-0.29;78.33;94305.50;5005844;28;20468;-69
2021/01/21 08:22:52;;;;;;;4.07;2.60;;;;;;;0.06;76.01;94306.38;5005217;28;20951;-69
2021/01/21 08:25:19;;;;;;;3.30;3.10;;;;;;;0.21;76.01;94299.66;4990803;28;20460;-68
2021/01/21 08:27:48;;;;;;;2.27;2.07;;;;;;;0.42;74.96;94306.25;4987154;28;20905;-69
2021/01/21 08:30:21;;;;;;;3.23;2.77;;;;;;;0.62;74.62;94302.41;4994529;28;20341;-68
2021/01/21 08:32:56;;;;;;;3.87;3.57;;;;;;;0.80;74.84;94305.72;5004451;28;20468;-69
2021/01/21 08:35:27;;;;;;;4.97;4.57;;;;;;;1.08;73.80;94298.50;5004961;28;20550;-69
2021/01/21 08:37:55;;;;;;;4.30;3.23;;;;;;;1.39;72.32;94295.31;5004962;28;20303;-69
2021/01/21 08:40:23;;;;;;;3.83;3.53;;;;;;;1.60;72.17;94300.03;4987815;28;20311;-69
2021/01/21 08:42:52;;;;;;;2.47;2.27;;;;;;;1.95;71.66;94296.25;4993629;28;20220;-70
2021/01/21 08:45:21;;;;;;;2.33;2.13;;;;;;;2.26;71.66;94288.56;4997358;28;20773;-69
2021/01/21 08:47:49;;;;;;;2.13;2.03;;;;;;;2.47;70.19;94291.44;4994184;28;20642;-69
2021/01/21 08:50:18;;;;;;;1.60;1.50;;;;;;;2.68;68.46;94300.47;5005884;28;20271;-69
2021/01/21 08:53:00;;;;;;;1.30;1.20;;;;;;;2.80;67.96;94291.28;5001621;28;20228;-68
2021/01/21 08:55:44;;;;;;;2.87;1.27;;;;;;;3.02;66.94;94297.56;5005543;28;20648;-69
2021/01/21 08:58:13;;;;;;;1.90;1.40;;;;;;;3.25;66.31;94297.56;4997593;28;20632;-69
2021/01/21 09:00:58;;;;;;;0.97;0.73;;;;;;;3.78;65.04;94308.94;4991910;28;20255;-69
2021/01/21 09:03:38;;;;;;;2.10;1.40;;;;;;;4.75;62.95;94305.34;4995813;28;20239;-69
2021/01/21 09:06:06;;;;;;;3.03;2.10;;;;;;;6.06;57.57;94298.31;5000603;28;20224;-69
2021/01/21 09:08:45;;;;;;;0.83;0.57;;;;;;;7.07;52.84;94297.72;5003562;28;20939;-69
2021/01/21 09:11:28;;;;;;;0.80;0.53;;;;;;;6.28;55.42;94318.22;4995805;28;20237;-70
2021/01/21 09:13:55;;;;;;;0.53;0.53;;;;;;;6.61;55.36;94312.41;4993274;28;20217;-69
2021/01/21 09:16:41;;;;;;;0.87;0.63;;;;;;;7.93;51.26;94307.63;4998606;28;20305;-69
2021/01/21 09:19:09;;;;;;;0.37;0.20;;;;;;;9.47;49.21;94301.91;4996098;28;20237;-69
2021/01/21 09:21:37;;;;;;;0.37;0.33;;;;;;;10.11;45.10;94307.00;4984543;28;20270;-69
2021/01/21 09:24:06;;;;;;;0.77;0.77;;;;;;;11.91;41.97;94296.22;4995830;28;20259;-70
2021/01/21 09:26:34;;;;;;;0.30;0.30;;;;;;;12.71;40.16;94298.41;4993832;28;20236;-70
2021/01/21 09:29:01;;;;;;;0.47;0.20;;;;;;;13.54;38.29;94294.66;4992135;28;20246;-70
2021/01/21 09:31:30;;;;;;;0.30;0.30;;;;;;;14.45;35.17;94290.19;4987287;28;20224;-70
2021/01/21 09:33:57;;;;;;;1.93;1.83;;;;;;;13.63;35.22;94303.84;5002287;28;20234;-70
2021/01/21 09:36:29;;;;;;;1.53;1.30;;;;;;;14.43;34.43;94298.34;5003688;28;20493;-70
2021/01/21 09:38:57;;;;;;;1.27;0.50;;;;;;;14.46;34.13;94303.22;4977148;28;20319;-70
2021/01/21 09:41:25;;;;;;;0.70;0.70;;;;;;;14.30;33.78;94308.50;4999853;28;20278;-69
2021/01/21 09:43:52;;;;;;;0.53;0.50;;;;;;;13.70;35.46;94309.78;4985753;28;20250;-70
2021/01/21 09:46:21;;;;;;;0.80;0.50;;;;;;;12.71;36.76;94309.81;5005052;28;20227;-69
2021/01/21 09:48:48;;;;;;;0.60;0.40;;;;;;;12.60;37.57;94313.25;4999694;28;20216;-70
2021/01/21 09:51:15;;;;;;;1.50;0.60;;;;;;;11.93;38.20;94310.00;4994535;28;20255;-69
2021/01/21 09:53:42;;;;;;;0.80;0.70;;;;;;;12.34;36.38;94309.19;4987180;28;20229;-70
2021/01/21 09:56:08;;;;;;;0.40;0.33;;;;;;;12.76;36.80;94309.91;5005016;28;20249;-70
2021/01/21 09:58:36;;;;;;;1.40;1.33;;;;;;;12.10;37.21;94305.69;4996257;28;20751;-69
2021/01/21 10:01:03;;;;;;;1.73;1.60;;;;;;;11.18;39.01;94305.03;4986230;28;20394;-69
2021/01/21 10:03:46;;;;;;;1.93;1.50;;;;;;;10.66;40.11;94298.47;5004230;28;20678;-69
2021/01/21 10:06:13;;;;;;;0.70;0.70;;;;;;;10.50;40.91;94305.91;4985672;28;20546;-69
2021/01/21 10:08:39;;;;;;;0.70;0.70;;;;;;;10.81;40.19;94309.50;5005209;28;20718;-69
2021/01/21 10:11:06;;;;;;;0.80;0.30;;;;;;;10.85;40.26;94302.75;4992289;28;20320;-69
2021/01/21 10:13:33;;;;;;;2.30;2.20;;;;;;;10.48;41.39;94297.41;4999761;28;20232;-69
2021/01/21 10:16:01;;;;;;;1.67;1.57;;;;;;;10.11;43.02;94309.63;4999358;28;20275;-68
2021/01/21 10:18:28;;;;;;;2.10;1.40;;;;;;;9.76;43.46;94303.97;4993897;28;20306;-69
2021/01/21 10:20:54;;;;;;;1.60;1.20;;;;;;;9.57;44.82;94307.53;4985277;28;20653;-69
2021/01/21 10:23:21;;;;;;;1.80;1.27;;;;;;;9.34;45.11;94300.97;4999524;28;20748;-69
2021/01/21 10:25:48;;;;;;;2.87;1.67;;;;;;;9.22;45.21;94294.72;5004965;28;20306;-69
2021/01/21 10:28:15;;;;;;;2.17;1.77;;;;;;;9.24;45.30;94294.53;5004959;28;20303;-69
2021/01/21 10:30:42;;;;;;;1.80;1.17;;;;;;;9.28;45.21;94291.28;5001397;28;20231;-68
2021/01/21 10:33:09;;;;;;;1.63;1.10;;;;;;;9.28;45.32;94286.00;4991633;28;20719;-69
2021/01/21 10:35:37;;;;;;;2.87;0.97;;;;;;;9.41;44.81;94293.81;4985749;28;20675;-68
2021/01/21 10:38:04;;;;;;;2.00;1.30;;;;;;;9.89;44.81;94287.31;4997062;28;20316;-69
2021/01/21 10:40:30;;;;;;;1.87;0.67;;;;;;;12.08;39.95;94276.03;4996647;28;20237;-69
2021/01/21 10:42:57;;;;;;;1.73;1.47;;;;;;;14.52;35.34;94275.69;4984196;28;20212;-69
2021/01/21 10:45:24;;;;;;;2.70;1.67;;;;;;;17.14;31.88;94268.41;4985732;28;20593;-69
2021/01/21 10:47:51;;;;;;;1.03;0.70;;;;;;;16.60;30.05;94259.78;5002938;28;20719;-69
2021/01/21 10:50:19;;;;;;;1.10;1.00;;;;;;;14.65;31.92;94269.28;5000076;28;20223;-69
2021/01/21 10:52:46;;;;;;;1.17;1.10;;;;;;;14.08;33.95;94273.88;5007331;28;20247;-69
2021/01/21 10:55:13;;;;;;;1.03;0.30;;;;;;;13.41;34.06;94266.56;5008566;28;20259;-68
2021/01/21 10:57:40;;;;;;;1.00;0.90;;;;;;;12.76;35.91;94266.75;5008530;28;20310;-69
2021/01/21 11:00:07;;;;;;;0.90;0.90;;;;;;;12.23;37.08;94273.75;4999038;28;20288;-69
2021/01/21 11:02:34;;;;;;;1.60;1.23;;;;;;;11.71;37.94;94263.94;5005192;28;20770;-69
2021/01/21 11:05:01;;;;;;;0.80;0.60;;;;;;;11.27;39.29;94258.81;5005624;28;20225;-68
2021/01/21 11:07:29;;;;;;;1.63;1.47;;;;;;;10.99;39.38;94259.34;4989027;28;20235;-68
2021/01/21 11:09:55;;;;;;;1.50;1.20;;;;;;;11.09;40.16;94272.84;4999800;28;20620;-69
2021/01/21 11:12:23;;;;;;;6.87;2.00;;;;;;;11.14;40.08;94268.72;4998359;28;20235;-68
2021/01/21 11:14:52;;;;;;;1.73;1.13;;;;;;;11.23;40.16;94262.91;4992519;28;20290;-69
2021/01/21 11:17:19;;;;;;;1.13;1.03;;;;;;;11.25;41.03;94260.09;4996204;28;20321;-68
2021/01/21 11:19:47;;;;;;;2.70;0.70;;;;;;;11.24;41.22;94269.81;4987886;28;20227;-68
2021/01/21 11:22:14;;;;;;;1.37;0.83;;;;;;;11.15;41.56;94271.13;5001283;28;20232;-68
2021/01/21 11:24:41;;;;;;;2.20;0.63;;;;;;;12.07;38.75;94271.78;4999153;28;20322;-68
2021/01/21 11:27:08;;;;;;;2.13;0.67;;;;;;;11.47;40.92;94274.41;4990449;28;20220;-68
2021/01/21 11:29:35;;;;;;;0.53;0.43;;;;;;;10.30;42.39;94271.00;5003237;28;20579;-68
2021/01/21 11:32:02;;;;;;;0.50;0.30;;;;;;;9.48;42.88;94282.47;4998628;28;20219;-67
2021/01/21 11:34:29;;;;;;;0.70;0.53;;;;;;;9.19;43.70;94275.91;4989094;28;20255;-69
2021/01/21 11:36:56;;;;;;;0.33;0.23;;;;;;;9.09;43.91;94269.28;4999201;28;20742;-69
2021/01/21 11:39:23;;;;;;;0.70;0.70;;;;;;;8.26;47.15;94266.41;5007015;28;20317;-68
2021/01/21 11:41:50;;;;;;;0.20;0.20;;;;;;;7.95;48.23;94269.66;5003294;28;20318;-68
2021/01/21 11:44:17;;;;;;;0.40;0.40;;;;;;;7.75;50.12;94271.44;4993536;28;20289;-69
2021/01/21 11:46:44;;;;;;;0.57;0.40;;;;;;;8.64;47.61;94275.50;4998302;28;20267;-69
2021/01/21 11:49:11;;;;;;;0.30;0.30;;;;;;;9.59;45.26;94276.53;4995869;28;20576;-69
2021/01/21 11:51:39;;;;;;;0.47;0.47;;;;;;;10.11;43.27;94278.00;4988196;28;20591;-69
2021/01/21 11:54:06;;;;;;;0.80;0.60;;;;;;;10.48;41.83;94276.31;5000134;28;20305;-69
2021/01/21 11:56:32;;;;;;;0.43;0.37;;;;;;;11.10;40.99;94263.88;5004313;28;20224;-68
2021/01/21 11:59:00;;;;;;;1.10;0.57;;;;;;;11.96;40.41;94254.03;4990906;28;20224;-68